sensor_id;sensor_type;location;lat;lon;timestamp;P1;durP1;ratioP1;P2;durP2;ratioP2
11090;SDS011;5599;52.210;21.046;2024-03-08T00:00:33;30.47;;;22.13;;
11090;SDS011;5599;52.210;21.046;2024-03-08T00:03:02;39.40;;;23.73;;
11090;SDS011;5599;52.210;21.046;2024-03-08T00:05:31;31.30;;;22.20;;
11090;SDS011;5599;52.210;21.046;2024-03-08T00:08:00;31.90;;;21.63;;
11090;SDS011;5599;52.210;21.046;2024-03-08T00:10:29;34.30;;;23.60;;
11090;SDS011;5599;52.210;21.046;2024-03-08T00:12:58;37.80;;;22.50;;
11090;SDS011;5599;52.210;21.046;2024-03-08T00:15:28;33.63;;;22.67;;
11090;SDS011;5599;52.210;21.046;2024-03-08T00:17:59;32.60;;;21.83;;
11090;SDS011;5599;52.210;21.046;2024-03-08T00:20:28;35.77;;;23.03;;
11090;SDS011;5599;52.210;21.046;2024-03-08T00:22:56;32.73;;;22.97;;
11090;SDS011;5599;52.210;21.046;2024-03-08T00:25:25;35.40;;;24.73;;
11090;SDS011;5599;52.210;21.046;2024-03-08T00:27:54;32.70;;;23.63;;
11090;SDS011;5599;52.210;21.046;2024-03-08T00:30:23;33.27;;;24.40;;
11090;SDS011;5599;52.210;21.046;2024-03-08T00:32:53;35.13;;;23.70;;
11090;SDS011;5599;52.210;21.046;2024-03-08T00:35:22;33.70;;;22.70;;
11090;SDS011;5599;52.210;21.046;2024-03-08T00:37:51;32.40;;;23.87;;
11090;SDS011;5599;52.210;21.046;2024-03-08T00:40:23;35.07;;;23.20;;
11090;SDS011;5599;52.210;21.046;2024-03-08T00:42:52;32.83;;;23.57;;
11090;SDS011;5599;52.210;21.046;2024-03-08T00:45:21;33.37;;;23.67;;
11090;SDS011;5599;52.210;21.046;2024-03-08T00:47:50;39.30;;;24.23;;
11090;SDS011;5599;52.210;21.046;2024-03-08T00:50:21;33.23;;;22.10;;
11090;SDS011;5599;52.210;21.046;2024-03-08T00:52:49;32.87;;;23.40;;
11090;SDS011;5599;52.210;21.046;2024-03-08T00:55:18;31.83;;;23.37;;
11090;SDS011;5599;52.210;21.046;2024-03-08T00:57:47;36.37;;;23.97;;
11090;SDS011;5599;52.210;21.046;2024-03-08T01:00:16;31.40;;;23.57;;
11090;SDS011;5599;52.210;21.046;2024-03-08T01:02:46;37.53;;;24.00;;
11090;SDS011;5599;52.210;21.046;2024-03-08T01:05:15;36.43;;;22.03;;
11090;SDS011;5599;52.210;21.046;2024-03-08T01:07:45;33.47;;;22.27;;
11090;SDS011;5599;52.210;21.046;2024-03-08T01:10:14;42.23;;;23.93;;
11090;SDS011;5599;52.210;21.046;2024-03-08T01:12:43;39.53;;;23.70;;
11090;SDS011;5599;52.210;21.046;2024-03-08T01:15:12;37.97;;;23.30;;
11090;SDS011;5599;52.210;21.046;2024-03-08T01:17:41;37.30;;;24.03;;
11090;SDS011;5599;52.210;21.046;2024-03-08T01:20:11;44.40;;;24.50;;
11090;SDS011;5599;52.210;21.046;2024-03-08T01:22:40;43.70;;;23.27;;
11090;SDS011;5599;52.210;21.046;2024-03-08T01:25:10;43.37;;;24.23;;
11090;SDS011;5599;52.210;21.046;2024-03-08T01:27:39;40.20;;;22.70;;
11090;SDS011;5599;52.210;21.046;2024-03-08T01:30:08;45.37;;;23.53;;
11090;SDS011;5599;52.210;21.046;2024-03-08T01:32:37;35.33;;;23.03;;
11090;SDS011;5599;52.210;21.046;2024-03-08T01:35:07;37.83;;;23.27;;
11090;SDS011;5599;52.210;21.046;2024-03-08T01:37:37;36.60;;;23.13;;
11090;SDS011;5599;52.210;21.046;2024-03-08T01:40:06;39.87;;;23.43;;
11090;SDS011;5599;52.210;21.046;2024-03-08T01:42:39;41.90;;;24.07;;
11090;SDS011;5599;52.210;21.046;2024-03-08T01:45:08;39.60;;;22.80;;
11090;SDS011;5599;52.210;21.046;2024-03-08T01:47:37;43.07;;;22.80;;
11090;SDS011;5599;52.210;21.046;2024-03-08T01:50:06;37.67;;;23.93;;
11090;SDS011;5599;52.210;21.046;2024-03-08T01:52:36;39.27;;;23.77;;
11090;SDS011;5599;52.210;21.046;2024-03-08T01:55:05;44.57;;;23.73;;
11090;SDS011;5599;52.210;21.046;2024-03-08T01:57:35;35.93;;;23.87;;
11090;SDS011;5599;52.210;21.046;2024-03-08T02:00:07;42.40;;;24.30;;
11090;SDS011;5599;52.210;21.046;2024-03-08T02:02:38;40.70;;;24.23;;
11090;SDS011;5599;52.210;21.046;2024-03-08T02:05:11;42.43;;;24.50;;
11090;SDS011;5599;52.210;21.046;2024-03-08T02:07:41;41.70;;;24.93;;
11090;SDS011;5599;52.210;21.046;2024-03-08T02:10:10;53.17;;;26.33;;
11090;SDS011;5599;52.210;21.046;2024-03-08T02:12:40;56.67;;;25.87;;
11090;SDS011;5599;52.210;21.046;2024-03-08T02:15:11;52.63;;;27.63;;
11090;SDS011;5599;52.210;21.046;2024-03-08T02:17:40;45.40;;;26.60;;
11090;SDS011;5599;52.210;21.046;2024-03-08T02:20:10;45.17;;;25.90;;
11090;SDS011;5599;52.210;21.046;2024-03-08T02:22:42;48.23;;;26.40;;
11090;SDS011;5599;52.210;21.046;2024-03-08T02:25:10;44.17;;;26.13;;
11090;SDS011;5599;52.210;21.046;2024-03-08T02:27:40;47.33;;;26.30;;
11090;SDS011;5599;52.210;21.046;2024-03-08T02:30:09;56.50;;;26.83;;
11090;SDS011;5599;52.210;21.046;2024-03-08T02:32:39;40.33;;;25.80;;
11090;SDS011;5599;52.210;21.046;2024-03-08T02:35:08;46.70;;;27.13;;
11090;SDS011;5599;52.210;21.046;2024-03-08T02:37:37;47.43;;;27.37;;
11090;SDS011;5599;52.210;21.046;2024-03-08T02:40:08;41.87;;;26.60;;
11090;SDS011;5599;52.210;21.046;2024-03-08T02:42:39;38.13;;;25.73;;
11090;SDS011;5599;52.210;21.046;2024-03-08T02:45:08;42.27;;;27.67;;
11090;SDS011;5599;52.210;21.046;2024-03-08T02:47:38;48.90;;;27.97;;
11090;SDS011;5599;52.210;21.046;2024-03-08T02:50:07;48.83;;;28.07;;
11090;SDS011;5599;52.210;21.046;2024-03-08T02:52:36;40.57;;;27.17;;
11090;SDS011;5599;52.210;21.046;2024-03-08T02:55:05;47.33;;;27.70;;
11090;SDS011;5599;52.210;21.046;2024-03-08T02:57:39;41.13;;;27.57;;
11090;SDS011;5599;52.210;21.046;2024-03-08T03:00:08;42.30;;;27.37;;
11090;SDS011;5599;52.210;21.046;2024-03-08T03:02:38;48.57;;;28.23;;
11090;SDS011;5599;52.210;21.046;2024-03-08T03:05:07;45.30;;;27.30;;
11090;SDS011;5599;52.210;21.046;2024-03-08T03:07:36;48.43;;;28.40;;
11090;SDS011;5599;52.210;21.046;2024-03-08T03:10:08;42.37;;;28.23;;
11090;SDS011;5599;52.210;21.046;2024-03-08T03:12:37;44.20;;;27.47;;
11090;SDS011;5599;52.210;21.046;2024-03-08T03:15:06;62.20;;;29.33;;
11090;SDS011;5599;52.210;21.046;2024-03-08T03:17:35;42.87;;;27.20;;
11090;SDS011;5599;52.210;21.046;2024-03-08T03:20:04;47.73;;;27.33;;
11090;SDS011;5599;52.210;21.046;2024-03-08T03:22:37;56.20;;;29.27;;
11090;SDS011;5599;52.210;21.046;2024-03-08T03:25:09;45.33;;;28.30;;
11090;SDS011;5599;52.210;21.046;2024-03-08T03:27:39;46.80;;;27.97;;
11090;SDS011;5599;52.210;21.046;2024-03-08T03:30:09;52.00;;;29.90;;
11090;SDS011;5599;52.210;21.046;2024-03-08T03:32:48;47.43;;;28.27;;
11090;SDS011;5599;52.210;21.046;2024-03-08T03:35:18;49.63;;;28.47;;
11090;SDS011;5599;52.210;21.046;2024-03-08T03:37:48;51.70;;;29.07;;
11090;SDS011;5599;52.210;21.046;2024-03-08T03:40:29;47.30;;;28.60;;
11090;SDS011;5599;52.210;21.046;2024-03-08T03:42:59;57.10;;;30.40;;
11090;SDS011;5599;52.210;21.046;2024-03-08T03:45:28;51.30;;;30.30;;
11090;SDS011;5599;52.210;21.046;2024-03-08T03:48:01;64.33;;;30.40;;
11090;SDS011;5599;52.210;21.046;2024-03-08T03:50:31;52.13;;;29.80;;
11090;SDS011;5599;52.210;21.046;2024-03-08T03:53:02;57.23;;;31.13;;
11090;SDS011;5599;52.210;21.046;2024-03-08T03:55:38;60.07;;;31.50;;
11090;SDS011;5599;52.210;21.046;2024-03-08T03:58:08;62.13;;;31.27;;
11090;SDS011;5599;52.210;21.046;2024-03-08T04:00:38;51.80;;;31.00;;
11090;SDS011;5599;52.210;21.046;2024-03-08T04:03:07;53.30;;;31.87;;
11090;SDS011;5599;52.210;21.046;2024-03-08T04:05:36;59.13;;;31.97;;
11090;SDS011;5599;52.210;21.046;2024-03-08T04:08:06;56.23;;;32.30;;
11090;SDS011;5599;52.210;21.046;2024-03-08T04:10:35;53.03;;;33.17;;
11090;SDS011;5599;52.210;21.046;2024-03-08T04:13:05;56.57;;;32.57;;
11090;SDS011;5599;52.210;21.046;2024-03-08T04:15:33;51.57;;;31.20;;
11090;SDS011;5599;52.210;21.046;2024-03-08T04:18:02;55.07;;;31.40;;
11090;SDS011;5599;52.210;21.046;2024-03-08T04:20:32;71.90;;;32.20;;
11090;SDS011;5599;52.210;21.046;2024-03-08T04:23:01;61.87;;;34.13;;
11090;SDS011;5599;52.210;21.046;2024-03-08T04:25:30;65.77;;;32.93;;
11090;SDS011;5599;52.210;21.046;2024-03-08T04:27:59;57.80;;;33.70;;
11090;SDS011;5599;52.210;21.046;2024-03-08T04:30:29;59.10;;;34.03;;
11090;SDS011;5599;52.210;21.046;2024-03-08T04:32:58;69.33;;;33.70;;
11090;SDS011;5599;52.210;21.046;2024-03-08T04:35:27;64.17;;;35.27;;
11090;SDS011;5599;52.210;21.046;2024-03-08T04:37:55;66.07;;;35.07;;
11090;SDS011;5599;52.210;21.046;2024-03-08T04:40:25;66.23;;;35.73;;
11090;SDS011;5599;52.210;21.046;2024-03-08T04:42:53;62.23;;;35.27;;
11090;SDS011;5599;52.210;21.046;2024-03-08T04:45:22;72.90;;;35.73;;
11090;SDS011;5599;52.210;21.046;2024-03-08T04:47:54;55.17;;;35.10;;
11090;SDS011;5599;52.210;21.046;2024-03-08T04:50:23;63.63;;;36.30;;
11090;SDS011;5599;52.210;21.046;2024-03-08T04:52:52;77.30;;;38.03;;
11090;SDS011;5599;52.210;21.046;2024-03-08T04:55:21;72.90;;;38.23;;
11090;SDS011;5599;52.210;21.046;2024-03-08T04:57:50;72.20;;;37.80;;
11090;SDS011;5599;52.210;21.046;2024-03-08T05:00:20;64.23;;;36.63;;
11090;SDS011;5599;52.210;21.046;2024-03-08T05:02:48;66.60;;;36.90;;
11090;SDS011;5599;52.210;21.046;2024-03-08T05:05:22;64.23;;;37.67;;
11090;SDS011;5599;52.210;21.046;2024-03-08T05:07:50;66.90;;;39.30;;
11090;SDS011;5599;52.210;21.046;2024-03-08T05:10:20;69.77;;;39.43;;
11090;SDS011;5599;52.210;21.046;2024-03-08T05:12:49;73.57;;;40.70;;
11090;SDS011;5599;52.210;21.046;2024-03-08T05:15:22;76.07;;;39.77;;
11090;SDS011;5599;52.210;21.046;2024-03-08T05:17:51;78.00;;;40.73;;
11090;SDS011;5599;52.210;21.046;2024-03-08T05:20:22;81.90;;;40.73;;
11090;SDS011;5599;52.210;21.046;2024-03-08T05:22:51;74.23;;;43.93;;
11090;SDS011;5599;52.210;21.046;2024-03-08T05:25:20;93.07;;;47.07;;
11090;SDS011;5599;52.210;21.046;2024-03-08T05:27:49;82.90;;;46.00;;
11090;SDS011;5599;52.210;21.046;2024-03-08T05:30:18;83.00;;;46.13;;
11090;SDS011;5599;52.210;21.046;2024-03-08T05:32:48;87.80;;;50.10;;
11090;SDS011;5599;52.210;21.046;2024-03-08T05:35:17;95.70;;;51.03;;
11090;SDS011;5599;52.210;21.046;2024-03-08T05:37:49;93.53;;;48.77;;
11090;SDS011;5599;52.210;21.046;2024-03-08T05:40:17;89.63;;;49.23;;
11090;SDS011;5599;52.210;21.046;2024-03-08T05:42:49;89.53;;;48.77;;
11090;SDS011;5599;52.210;21.046;2024-03-08T05:45:18;76.97;;;47.07;;
11090;SDS011;5599;52.210;21.046;2024-03-08T05:47:47;96.83;;;47.13;;
11090;SDS011;5599;52.210;21.046;2024-03-08T05:50:16;88.53;;;48.70;;
11090;SDS011;5599;52.210;21.046;2024-03-08T05:52:45;86.70;;;48.07;;
11090;SDS011;5599;52.210;21.046;2024-03-08T05:55:16;89.93;;;49.10;;
11090;SDS011;5599;52.210;21.046;2024-03-08T05:57:45;79.00;;;47.10;;
11090;SDS011;5599;52.210;21.046;2024-03-08T06:00:15;96.47;;;48.70;;
11090;SDS011;5599;52.210;21.046;2024-03-08T06:02:46;73.20;;;47.90;;
11090;SDS011;5599;52.210;21.046;2024-03-08T06:05:15;87.67;;;49.07;;
11090;SDS011;5599;52.210;21.046;2024-03-08T06:07:44;84.90;;;47.33;;
11090;SDS011;5599;52.210;21.046;2024-03-08T06:10:13;84.63;;;44.83;;
11090;SDS011;5599;52.210;21.046;2024-03-08T06:12:45;61.97;;;42.23;;
11090;SDS011;5599;52.210;21.046;2024-03-08T06:15:14;71.17;;;41.77;;
11090;SDS011;5599;52.210;21.046;2024-03-08T06:17:43;60.30;;;39.47;;
11090;SDS011;5599;52.210;21.046;2024-03-08T06:20:12;61.30;;;41.10;;
11090;SDS011;5599;52.210;21.046;2024-03-08T06:22:41;62.73;;;41.47;;
11090;SDS011;5599;52.210;21.046;2024-03-08T06:25:11;64.57;;;41.27;;
11090;SDS011;5599;52.210;21.046;2024-03-08T06:27:41;64.18;;;41.33;;
11090;SDS011;5599;52.210;21.046;2024-03-08T06:30:12;62.10;;;41.60;;
11090;SDS011;5599;52.210;21.046;2024-03-08T06:32:43;49.45;;;36.42;;
11090;SDS011;5599;52.210;21.046;2024-03-08T06:35:12;66.22;;;40.50;;
11090;SDS011;5599;52.210;21.046;2024-03-08T06:37:43;54.75;;;39.67;;
11090;SDS011;5599;52.210;21.046;2024-03-08T06:40:12;57.15;;;40.30;;
11090;SDS011;5599;52.210;21.046;2024-03-08T06:42:41;54.33;;;39.95;;
11090;SDS011;5599;52.210;21.046;2024-03-08T06:45:11;57.65;;;40.72;;
11090;SDS011;5599;52.210;21.046;2024-03-08T06:47:46;63.30;;;41.85;;
11090;SDS011;5599;52.210;21.046;2024-03-08T06:50:15;62.80;;;44.03;;
11090;SDS011;5599;52.210;21.046;2024-03-08T06:52:44;59.80;;;40.28;;
11090;SDS011;5599;52.210;21.046;2024-03-08T06:55:17;59.40;;;41.95;;
11090;SDS011;5599;52.210;21.046;2024-03-08T06:57:46;58.67;;;40.05;;
11090;SDS011;5599;52.210;21.046;2024-03-08T07:00:17;54.63;;;40.30;;
11090;SDS011;5599;52.210;21.046;2024-03-08T07:02:48;56.97;;;39.72;;
11090;SDS011;5599;52.210;21.046;2024-03-08T07:05:17;57.88;;;38.90;;
11090;SDS011;5599;52.210;21.046;2024-03-08T07:07:47;55.88;;;40.03;;
11090;SDS011;5599;52.210;21.046;2024-03-08T07:10:16;50.25;;;38.95;;
11090;SDS011;5599;52.210;21.046;2024-03-08T07:12:46;47.78;;;37.80;;
11090;SDS011;5599;52.210;21.046;2024-03-08T07:15:16;49.47;;;36.13;;
11090;SDS011;5599;52.210;21.046;2024-03-08T07:17:47;42.88;;;34.67;;
11090;SDS011;5599;52.210;21.046;2024-03-08T07:20:16;43.83;;;33.38;;
11090;SDS011;5599;52.210;21.046;2024-03-08T07:22:46;36.40;;;28.35;;
11090;SDS011;5599;52.210;21.046;2024-03-08T07:25:18;50.63;;;30.33;;
11090;SDS011;5599;52.210;21.046;2024-03-08T07:27:50;40.80;;;31.38;;
11090;SDS011;5599;52.210;21.046;2024-03-08T07:30:22;37.60;;;30.60;;
11090;SDS011;5599;52.210;21.046;2024-03-08T07:33:10;42.28;;;30.27;;
11090;SDS011;5599;52.210;21.046;2024-03-08T07:35:40;33.35;;;27.13;;
11090;SDS011;5599;52.210;21.046;2024-03-08T07:38:11;37.13;;;28.25;;
11090;SDS011;5599;52.210;21.046;2024-03-08T07:40:41;34.13;;;25.48;;
11090;SDS011;5599;52.210;21.046;2024-03-08T07:43:12;34.30;;;24.65;;
11090;SDS011;5599;52.210;21.046;2024-03-08T07:45:43;37.47;;;26.17;;
11090;SDS011;5599;52.210;21.046;2024-03-08T07:48:11;27.30;;;22.92;;
11090;SDS011;5599;52.210;21.046;2024-03-08T07:50:41;34.65;;;21.98;;
11090;SDS011;5599;52.210;21.046;2024-03-08T07:53:10;32.85;;;23.98;;
11090;SDS011;5599;52.210;21.046;2024-03-08T07:55:39;28.90;;;23.37;;
11090;SDS011;5599;52.210;21.046;2024-03-08T07:58:09;34.55;;;25.25;;
11090;SDS011;5599;52.210;21.046;2024-03-08T08:00:40;35.40;;;25.53;;
11090;SDS011;5599;52.210;21.046;2024-03-08T08:03:11;33.17;;;24.40;;
11090;SDS011;5599;52.210;21.046;2024-03-08T08:05:40;32.50;;;23.43;;
11090;SDS011;5599;52.210;21.046;2024-03-08T08:08:09;32.67;;;23.10;;
11090;SDS011;5599;52.210;21.046;2024-03-08T08:10:38;29.00;;;21.97;;
11090;SDS011;5599;52.210;21.046;2024-03-08T08:13:07;32.77;;;24.00;;
11090;SDS011;5599;52.210;21.046;2024-03-08T08:15:37;31.60;;;22.87;;
11090;SDS011;5599;52.210;21.046;2024-03-08T08:18:06;35.67;;;23.53;;
11090;SDS011;5599;52.210;21.046;2024-03-08T08:20:38;35.77;;;21.67;;
11090;SDS011;5599;52.210;21.046;2024-03-08T08:23:07;27.80;;;22.37;;
11090;SDS011;5599;52.210;21.046;2024-03-08T08:25:39;29.73;;;19.73;;
11090;SDS011;5599;52.210;21.046;2024-03-08T08:28:07;33.63;;;23.27;;
11090;SDS011;5599;52.210;21.046;2024-03-08T08:30:36;32.10;;;23.03;;
11090;SDS011;5599;52.210;21.046;2024-03-08T08:33:05;30.80;;;22.80;;
11090;SDS011;5599;52.210;21.046;2024-03-08T08:35:35;27.00;;;16.70;;
11090;SDS011;5599;52.210;21.046;2024-03-08T08:38:06;25.20;;;18.60;;
11090;SDS011;5599;52.210;21.046;2024-03-08T08:40:35;24.40;;;15.53;;
11090;SDS011;5599;52.210;21.046;2024-03-08T08:43:04;19.77;;;14.60;;
11090;SDS011;5599;52.210;21.046;2024-03-08T08:45:34;24.13;;;15.80;;
11090;SDS011;5599;52.210;21.046;2024-03-08T08:48:03;24.13;;;16.47;;
11090;SDS011;5599;52.210;21.046;2024-03-08T08:50:33;25.03;;;17.10;;
11090;SDS011;5599;52.210;21.046;2024-03-08T08:53:02;23.67;;;15.80;;
11090;SDS011;5599;52.210;21.046;2024-03-08T08:55:32;20.50;;;14.87;;
11090;SDS011;5599;52.210;21.046;2024-03-08T08:58:03;20.23;;;15.43;;
11090;SDS011;5599;52.210;21.046;2024-03-08T09:00:34;21.83;;;14.83;;
11090;SDS011;5599;52.210;21.046;2024-03-08T09:03:03;18.07;;;15.37;;
11090;SDS011;5599;52.210;21.046;2024-03-08T09:05:33;22.70;;;15.67;;
11090;SDS011;5599;52.210;21.046;2024-03-08T09:08:05;22.77;;;16.30;;
11090;SDS011;5599;52.210;21.046;2024-03-08T09:10:37;23.77;;;16.73;;
11090;SDS011;5599;52.210;21.046;2024-03-08T09:13:07;19.47;;;16.10;;
11090;SDS011;5599;52.210;21.046;2024-03-08T09:15:44;22.23;;;16.00;;
11090;SDS011;5599;52.210;21.046;2024-03-08T09:18:14;20.30;;;14.93;;
11090;SDS011;5599;52.210;21.046;2024-03-08T09:20:43;18.03;;;14.73;;
11090;SDS011;5599;52.210;21.046;2024-03-08T09:23:12;17.27;;;14.07;;
11090;SDS011;5599;52.210;21.046;2024-03-08T09:25:43;20.03;;;13.30;;
11090;SDS011;5599;52.210;21.046;2024-03-08T09:28:13;15.30;;;12.53;;
11090;SDS011;5599;52.210;21.046;2024-03-08T09:30:43;17.58;;;12.55;;
11090;SDS011;5599;52.210;21.046;2024-03-08T09:33:25;21.97;;;15.77;;
11090;SDS011;5599;52.210;21.046;2024-03-08T09:35:55;25.60;;;16.40;;
11090;SDS011;5599;52.210;21.046;2024-03-08T09:38:29;17.43;;;14.70;;
11090;SDS011;5599;52.210;21.046;2024-03-08T09:41:00;17.27;;;13.93;;
11090;SDS011;5599;52.210;21.046;2024-03-08T09:43:31;24.47;;;13.40;;
11090;SDS011;5599;52.210;21.046;2024-03-08T09:46:00;15.73;;;12.10;;
11090;SDS011;5599;52.210;21.046;2024-03-08T09:48:30;13.73;;;12.23;;
11090;SDS011;5599;52.210;21.046;2024-03-08T09:50:59;15.60;;;11.80;;
11090;SDS011;5599;52.210;21.046;2024-03-08T09:53:28;14.00;;;11.67;;
11090;SDS011;5599;52.210;21.046;2024-03-08T09:55:58;20.33;;;13.07;;
11090;SDS011;5599;52.210;21.046;2024-03-08T09:58:31;19.25;;;13.15;;
11090;SDS011;5599;52.210;21.046;2024-03-08T10:01:21;14.57;;;11.52;;
11090;SDS011;5599;52.210;21.046;2024-03-08T10:03:50;18.15;;;12.48;;
11090;SDS011;5599;52.210;21.046;2024-03-08T10:06:22;15.85;;;11.57;;
11090;SDS011;5599;52.210;21.046;2024-03-08T10:08:51;18.17;;;13.00;;
11090;SDS011;5599;52.210;21.046;2024-03-08T10:11:22;14.85;;;13.13;;
11090;SDS011;5599;52.210;21.046;2024-03-08T10:13:53;16.33;;;12.13;;
11090;SDS011;5599;52.210;21.046;2024-03-08T10:16:23;18.45;;;14.05;;
11090;SDS011;5599;52.210;21.046;2024-03-08T10:18:56;17.98;;;12.77;;
11090;SDS011;5599;52.210;21.046;2024-03-08T10:21:25;15.18;;;11.70;;
11090;SDS011;5599;52.210;21.046;2024-03-08T10:23:55;13.67;;;11.50;;
11090;SDS011;5599;52.210;21.046;2024-03-08T10:26:26;14.30;;;12.82;;
11090;SDS011;5599;52.210;21.046;2024-03-08T10:28:55;18.88;;;13.40;;
11090;SDS011;5599;52.210;21.046;2024-03-08T10:31:25;18.13;;;13.05;;
11090;SDS011;5599;52.210;21.046;2024-03-08T10:33:54;16.05;;;12.98;;
11090;SDS011;5599;52.210;21.046;2024-03-08T10:36:23;20.65;;;13.48;;
11090;SDS011;5599;52.210;21.046;2024-03-08T10:38:52;17.87;;;12.43;;
11090;SDS011;5599;52.210;21.046;2024-03-08T10:41:21;14.93;;;12.75;;
11090;SDS011;5599;52.210;21.046;2024-03-08T10:44:01;14.30;;;12.70;;
11090;SDS011;5599;52.210;21.046;2024-03-08T10:46:47;20.20;;;12.77;;
11090;SDS011;5599;52.210;21.046;2024-03-08T10:49:32;18.60;;;13.13;;
11090;SDS011;5599;52.210;21.046;2024-03-08T10:52:06;16.50;;;12.60;;
11090;SDS011;5599;52.210;21.046;2024-03-08T10:54:37;16.73;;;13.47;;
11090;SDS011;5599;52.210;21.046;2024-03-08T10:57:11;19.03;;;12.03;;
11090;SDS011;5599;52.210;21.046;2024-03-08T10:59:43;18.03;;;13.13;;
11090;SDS011;5599;52.210;21.046;2024-03-08T11:02:13;19.63;;;13.70;;
11090;SDS011;5599;52.210;21.046;2024-03-08T11:04:47;17.27;;;12.97;;
11090;SDS011;5599;52.210;21.046;2024-03-08T11:07:16;15.63;;;12.80;;
11090;SDS011;5599;52.210;21.046;2024-03-08T11:09:47;19.43;;;13.77;;
11090;SDS011;5599;52.210;21.046;2024-03-08T11:12:23;16.93;;;13.50;;
11090;SDS011;5599;52.210;21.046;2024-03-08T11:14:58;18.27;;;12.83;;
11090;SDS011;5599;52.210;21.046;2024-03-08T11:17:40;17.43;;;12.43;;
11090;SDS011;5599;52.210;21.046;2024-03-08T11:20:15;14.70;;;12.67;;
11090;SDS011;5599;52.210;21.046;2024-03-08T11:22:49;17.20;;;12.47;;
11090;SDS011;5599;52.210;21.046;2024-03-08T11:28:12;14.77;;;11.70;;
11090;SDS011;5599;52.210;21.046;2024-03-08T11:30:47;16.07;;;13.00;;
11090;SDS011;5599;52.210;21.046;2024-03-08T11:33:31;13.73;;;11.33;;
11090;SDS011;5599;52.210;21.046;2024-03-08T11:36:02;14.63;;;11.23;;
11090;SDS011;5599;52.210;21.046;2024-03-08T11:38:40;13.87;;;10.93;;
11090;SDS011;5599;52.210;21.046;2024-03-08T11:41:10;16.97;;;12.00;;
11090;SDS011;5599;52.210;21.046;2024-03-08T11:43:45;14.50;;;11.10;;
11090;SDS011;5599;52.210;21.046;2024-03-08T11:46:16;15.27;;;11.47;;
11090;SDS011;5599;52.210;21.046;2024-03-08T11:48:47;13.33;;;10.93;;
11090;SDS011;5599;52.210;21.046;2024-03-08T11:51:16;13.00;;;11.33;;
11090;SDS011;5599;52.210;21.046;2024-03-08T11:53:48;14.70;;;11.10;;
11090;SDS011;5599;52.210;21.046;2024-03-08T11:56:18;14.00;;;10.70;;
11090;SDS011;5599;52.210;21.046;2024-03-08T11:58:52;20.30;;;11.50;;
11090;SDS011;5599;52.210;21.046;2024-03-08T12:01:26;14.10;;;9.33;;
11090;SDS011;5599;52.210;21.046;2024-03-08T12:03:55;14.97;;;10.13;;
11090;SDS011;5599;52.210;21.046;2024-03-08T12:06:27;15.47;;;10.73;;
11090;SDS011;5599;52.210;21.046;2024-03-08T12:09:04;13.90;;;10.33;;
11090;SDS011;5599;52.210;21.046;2024-03-08T12:11:33;19.63;;;10.17;;
11090;SDS011;5599;52.210;21.046;2024-03-08T12:14:03;16.07;;;9.57;;
11090;SDS011;5599;52.210;21.046;2024-03-08T12:16:34;14.70;;;10.73;;
11090;SDS011;5599;52.210;21.046;2024-03-08T12:19:05;11.97;;;9.97;;
11090;SDS011;5599;52.210;21.046;2024-03-08T12:21:36;14.13;;;9.80;;
11090;SDS011;5599;52.210;21.046;2024-03-08T12:24:09;14.93;;;10.67;;
11090;SDS011;5599;52.210;21.046;2024-03-08T12:26:43;16.10;;;11.93;;
11090;SDS011;5599;52.210;21.046;2024-03-08T12:29:19;13.50;;;11.73;;
11090;SDS011;5599;52.210;21.046;2024-03-08T12:31:52;15.73;;;12.13;;
11090;SDS011;5599;52.210;21.046;2024-03-08T12:34:22;14.20;;;10.43;;
11090;SDS011;5599;52.210;21.046;2024-03-08T12:36:51;12.63;;;10.47;;
11090;SDS011;5599;52.210;21.046;2024-03-08T12:39:21;17.50;;;11.67;;
11090;SDS011;5599;52.210;21.046;2024-03-08T12:41:54;14.10;;;10.57;;
11090;SDS011;5599;52.210;21.046;2024-03-08T12:44:26;14.70;;;10.30;;
11090;SDS011;5599;52.210;21.046;2024-03-08T12:46:57;15.43;;;10.50;;
11090;SDS011;5599;52.210;21.046;2024-03-08T12:49:27;15.50;;;10.47;;
11090;SDS011;5599;52.210;21.046;2024-03-08T12:51:57;16.07;;;10.77;;
11090;SDS011;5599;52.210;21.046;2024-03-08T12:54:27;14.70;;;11.27;;
11090;SDS011;5599;52.210;21.046;2024-03-08T12:56:58;12.20;;;9.70;;
11090;SDS011;5599;52.210;21.046;2024-03-08T12:59:27;12.50;;;10.73;;
11090;SDS011;5599;52.210;21.046;2024-03-08T13:01:57;18.33;;;11.33;;
11090;SDS011;5599;52.210;21.046;2024-03-08T13:04:27;14.17;;;10.60;;
11090;SDS011;5599;52.210;21.046;2024-03-08T13:06:58;14.23;;;10.50;;
11090;SDS011;5599;52.210;21.046;2024-03-08T13:09:28;13.63;;;9.47;;
11090;SDS011;5599;52.210;21.046;2024-03-08T13:12:00;14.40;;;10.80;;
11090;SDS011;5599;52.210;21.046;2024-03-08T13:14:29;16.00;;;10.50;;
11090;SDS011;5599;52.210;21.046;2024-03-08T13:17:01;15.53;;;11.03;;
11090;SDS011;5599;52.210;21.046;2024-03-08T13:19:31;16.37;;;10.47;;
11090;SDS011;5599;52.210;21.046;2024-03-08T13:22:01;15.53;;;10.93;;
11090;SDS011;5599;52.210;21.046;2024-03-08T13:24:33;11.80;;;10.10;;
11090;SDS011;5599;52.210;21.046;2024-03-08T13:27:02;11.90;;;9.93;;
11090;SDS011;5599;52.210;21.046;2024-03-08T13:29:43;12.93;;;11.10;;
11090;SDS011;5599;52.210;21.046;2024-03-08T13:32:15;16.83;;;11.67;;
11090;SDS011;5599;52.210;21.046;2024-03-08T13:34:44;15.03;;;11.10;;
11090;SDS011;5599;52.210;21.046;2024-03-08T13:37:14;14.97;;;11.20;;
11090;SDS011;5599;52.210;21.046;2024-03-08T13:39:43;19.37;;;11.93;;
11090;SDS011;5599;52.210;21.046;2024-03-08T13:42:12;20.57;;;12.13;;
11090;SDS011;5599;52.210;21.046;2024-03-08T13:44:43;18.73;;;12.00;;
11090;SDS011;5599;52.210;21.046;2024-03-08T13:47:14;16.53;;;11.40;;
11090;SDS011;5599;52.210;21.046;2024-03-08T13:49:44;12.97;;;10.00;;
11090;SDS011;5599;52.210;21.046;2024-03-08T13:52:13;15.77;;;10.73;;
11090;SDS011;5599;52.210;21.046;2024-03-08T13:54:43;17.87;;;11.43;;
11090;SDS011;5599;52.210;21.046;2024-03-08T13:57:12;17.73;;;11.13;;
11090;SDS011;5599;52.210;21.046;2024-03-08T13:59:41;13.03;;;10.60;;
11090;SDS011;5599;52.210;21.046;2024-03-08T14:02:10;15.77;;;11.50;;
11090;SDS011;5599;52.210;21.046;2024-03-08T14:04:42;18.83;;;10.77;;
11090;SDS011;5599;52.210;21.046;2024-03-08T14:07:11;14.63;;;11.63;;
11090;SDS011;5599;52.210;21.046;2024-03-08T14:09:40;19.53;;;10.40;;
11090;SDS011;5599;52.210;21.046;2024-03-08T14:12:10;15.10;;;11.30;;
11090;SDS011;5599;52.210;21.046;2024-03-08T14:14:40;15.07;;;11.40;;
11090;SDS011;5599;52.210;21.046;2024-03-08T14:17:11;19.97;;;11.30;;
11090;SDS011;5599;52.210;21.046;2024-03-08T14:19:45;13.77;;;11.37;;
11090;SDS011;5599;52.210;21.046;2024-03-08T14:22:14;13.23;;;11.07;;
11090;SDS011;5599;52.210;21.046;2024-03-08T14:24:43;19.10;;;11.43;;
11090;SDS011;5599;52.210;21.046;2024-03-08T14:27:12;13.70;;;11.03;;
11090;SDS011;5599;52.210;21.046;2024-03-08T14:29:44;14.23;;;11.33;;
11090;SDS011;5599;52.210;21.046;2024-03-08T14:32:13;13.30;;;10.43;;
11090;SDS011;5599;52.210;21.046;2024-03-08T14:34:42;14.37;;;11.17;;
11090;SDS011;5599;52.210;21.046;2024-03-08T14:37:14;21.13;;;12.20;;
11090;SDS011;5599;52.210;21.046;2024-03-08T14:39:44;15.83;;;11.33;;
11090;SDS011;5599;52.210;21.046;2024-03-08T14:42:13;20.90;;;13.03;;